Time;durP1;ratioP1;P1;durP2;ratioP2;P2;SDS_P1;SDS_P2;PMS_P1;PMS_P2;Temp;Humidity;BMP_temperature;BMP_pressure;BME280_temperature;BME280_humidity;BME280_pressure;Samples;Min_cycle;Max_cycle;Signal;HPM_P1;HPM_P2
2021/01/20 00:02:20;;;;;;;2.87;2.43;;;;;;;11.33;100.00;99693.80;1888676;76;26580;-71
2021/01/20 00:04:50;;;;;;;2.30;2.07;;;;;;;11.34;100.00;99680.13;1888760;76;26254;-71
2021/01/20 00:07:20;;;;;;;2.93;2.30;;;;;;;11.32;100.00;99686.59;1888633;76;26305;-71
2021/01/20 00:09:49;;;;;;;4.63;2.30;;;;;;;11.32;100.00;99678.25;1888964;75;26164;-71
2021/01/20 00:12:19;;;;;;;3.63;2.67;;;;;;;11.34;100.00;99677.92;1888710;75;26180;-71
2021/01/20 00:14:49;;;;;;;2.40;2.00;;;;;;;11.28;100.00;99665.31;1888451;76;26229;-71
2021/01/20 00:17:20;;;;;;;4.70;2.40;;;;;;;11.22;100.00;99677.69;1888516;76;26591;-72
2021/01/20 00:19:50;;;;;;;2.63;2.23;;;;;;;11.23;100.00;99672.39;1888602;76;26591;-71
2021/01/20 00:22:19;;;;;;;3.87;2.20;;;;;;;11.19;100.00;99665.83;1888524;76;26222;-71
2021/01/20 00:24:49;;;;;;;2.03;1.90;;;;;;;11.15;100.00;99659.27;1888516;76;26192;-71
2021/01/20 00:27:19;;;;;;;2.20;1.90;;;;;;;11.17;100.00;99647.25;1888606;76;26196;-71
2021/01/20 00:29:49;;;;;;;1.83;1.70;;;;;;;11.24;100.00;99642.89;1888573;76;26172;-72
2021/01/20 00:32:19;;;;;;;3.40;2.00;;;;;;;11.13;100.00;99647.06;1888591;76;26717;-71
2021/01/20 00:34:49;;;;;;;2.43;1.70;;;;;;;11.12;100.00;99653.79;1888502;76;26176;-71
2021/01/20 00:37:21;;;;;;;2.57;1.93;;;;;;;11.09;100.00;99646.06;1888552;76;26612;-71
2021/01/20 00:39:50;;;;;;;1.70;1.60;;;;;;;11.11;100.00;99638.24;1888767;76;26599;-71
2021/01/20 00:42:20;;;;;;;1.87;1.63;;;;;;;11.08;100.00;99627.74;1888505;76;26258;-71
2021/01/20 00:44:50;;;;;;;3.13;2.00;;;;;;;11.09;100.00;99636.91;1888399;76;26176;-72
2021/01/20 00:47:19;;;;;;;5.73;1.90;;;;;;;11.13;100.00;99629.00;1888404;75;26240;-71
2021/01/20 00:49:49;;;;;;;2.80;2.07;;;;;;;11.09;100.00;99621.05;1888491;76;26177;-71
2021/01/20 00:52:19;;;;;;;3.90;2.00;;;;;;;11.14;100.00;99622.88;1888573;76;26684;-71
2021/01/20 00:54:49;;;;;;;3.23;1.80;;;;;;;11.06;100.00;99620.87;1888561;76;26270;-71
2021/01/20 00:57:19;;;;;;;2.93;1.73;;;;;;;11.06;100.00;99617.53;1888507;76;26243;-71
2021/01/20 00:59:48;;;;;;;2.83;1.83;;;;;;;11.12;100.00;99609.33;1888592;76;26651;-71
2021/01/20 01:02:18;;;;;;;1.80;1.57;;;;;;;11.15;100.00;99615.62;1888509;76;26286;-71
2021/01/20 01:04:48;;;;;;;2.60;1.63;;;;;;;11.16;100.00;99615.06;1888491;76;26254;-72
2021/01/20 01:07:19;;;;;;;3.80;1.77;;;;;;;11.11;100.00;99611.84;1888451;76;26285;-72
2021/01/20 01:09:51;;;;;;;1.80;1.63;;;;;;;11.18;100.00;99607.20;1888575;76;26628;-72
2021/01/20 01:12:21;;;;;;;2.70;1.67;;;;;;;11.10;100.00;99587.97;1888584;76;26192;-71
2021/01/20 01:14:50;;;;;;;1.50;1.40;;;;;;;11.13;100.00;99595.66;1888566;76;26188;-72
2021/01/20 01:17:20;;;;;;;2.57;1.53;;;;;;;11.10;100.00;99588.53;1888465;76;26251;-72
2021/01/20 01:19:50;;;;;;;2.03;1.30;;;;;;;11.12;100.00;99586.27;1888577;76;26632;-71
2021/01/20 01:22:20;;;;;;;2.27;1.30;;;;;;;11.12;100.00;99585.70;1888499;76;26188;-72
2021/01/20 01:24:49;;;;;;;2.10;1.40;;;;;;;11.17;100.00;99593.05;1888492;76;26192;-72
2021/01/20 01:27:19;;;;;;;4.00;1.60;;;;;;;11.13;100.00;99579.55;1888541;76;26618;-72
2021/01/20 01:29:52;;;;;;;1.93;1.33;;;;;;;11.14;100.00;99583.97;1888600;76;26267;-71
2021/01/20 01:32:22;;;;;;;2.10;1.17;;;;;;;11.12;100.00;99584.31;1888465;76;26612;-71
2021/01/20 01:34:52;;;;;;;1.60;0.90;;;;;;;11.12;100.00;99575.16;1888572;76;26235;-71
2021/01/20 01:37:22;;;;;;;2.30;1.20;;;;;;;11.15;100.00;99574.50;1888493;76;26172;-72
2021/01/20 01:39:52;;;;;;;1.20;1.10;;;;;;;11.15;100.00;99571.72;1888595;76;26577;-71
2021/01/20 01:42:28;;;;;;;1.97;1.10;;;;;;;11.13;100.00;99567.86;1888572;76;26255;-71
2021/01/20 01:44:58;;;;;;;1.03;1.03;;;;;;;11.12;100.00;99566.81;1888573;76;26297;-71
2021/01/20 01:47:28;;;;;;;2.67;1.10;;;;;;;11.11;100.00;99567.38;1888362;75;26364;-71
2021/01/20 01:49:58;;;;;;;3.40;1.20;;;;;;;11.09;100.00;99563.27;1888486;76;26227;-72
2021/01/20 01:52:29;;;;;;;1.50;1.00;;;;;;;11.10;100.00;99566.30;1888477;76;26734;-71
2021/01/20 01:55:01;;;;;;;1.77;1.00;;;;;;;11.13;100.00;99558.70;1888445;76;26651;-72
2021/01/20 01:57:31;;;;;;;2.47;1.10;;;;;;;11.14;100.00;99547.28;1888461;76;26212;-72
2021/01/20 02:00:01;;;;;;;3.80;1.20;;;;;;;11.17;100.00;99553.58;1888456;76;26246;-71
2021/01/20 02:02:31;;;;;;;1.80;1.37;;;;;;;11.17;100.00;99537.47;1888467;76;26244;-71
2021/01/20 02:05:01;;;;;;;2.20;1.03;;;;;;;11.15;100.00;99549.49;1888481;76;26655;-71
2021/01/20 02:07:32;;;;;;;1.83;1.10;;;;;;;11.14;100.00;99536.73;1888430;76;26224;-71
2021/01/20 02:10:04;;;;;;;3.10;1.23;;;;;;;11.23;100.00;99526.47;1888416;76;26196;-72
2021/01/20 02:12:55;;;;;;;2.50;1.00;;;;;;;11.18;100.00;99537.16;1888470;76;26745;-72
2021/01/20 02:15:31;;;;;;;2.97;0.93;;;;;;;11.17;100.00;99527.74;1887540;76;26180;-71
2021/01/20 02:18:04;;;;;;;4.13;1.13;;;;;;;11.11;100.00;99536.81;1887915;76;26238;-71
2021/01/20 02:21:09;;;;;;;1.97;0.80;;;;;;;11.17;100.00;99533.30;1888474;76;26185;-71
2021/01/20 02:23:44;;;;;;;1.43;0.90;;;;;;;11.14;100.00;99522.84;1888427;76;26659;-72
2021/01/20 02:26:27;;;;;;;2.40;0.97;;;;;;;11.11;100.00;99522.92;1888460;76;26668;-71
2021/01/20 02:29:10;;;;;;;1.97;0.90;;;;;;;11.10;100.00;99519.06;1888520;76;26323;-72
2021/01/20 02:31:42;;;;;;;1.57;1.00;;;;;;;11.12;100.00;99523.75;1888532;76;26188;-72
2021/01/20 02:34:14;;;;;;;3.90;1.20;;;;;;;11.12;100.00;99500.95;1888550;76;26612;-72
2021/01/20 02:36:47;;;;;;;2.03;0.90;;;;;;;11.06;100.00;99519.45;1888385;76;26184;-72
2021/01/20 02:39:19;;;;;;;3.07;1.00;;;;;;;11.10;100.00;99503.78;1888465;76;26209;-72
2021/01/20 02:41:49;;;;;;;2.57;0.87;;;;;;;11.13;100.00;99498.39;1888537;76;26258;-72
2021/01/20 02:44:19;;;;;;;3.83;1.00;;;;;;;11.14;100.00;99482.55;1888454;76;26712;-72
2021/01/20 02:46:48;;;;;;;3.53;1.00;;;;;;;11.12;100.00;99479.28;1888361;75;26232;-72
2021/01/20 02:49:18;;;;;;;2.97;0.93;;;;;;;11.07;100.00;99480.81;1888395;76;26639;-72
2021/01/20 02:51:52;;;;;;;1.90;1.00;;;;;;;11.13;100.00;99462.83;1888444;76;26675;-72
2021/01/20 02:54:24;;;;;;;2.57;1.53;;;;;;;11.10;100.00;99463.48;1888537;76;26269;-71
2021/01/20 02:56:56;;;;;;;4.17;1.50;;;;;;;11.13;100.00;99469.78;1888535;76;26355;-72
2021/01/20 02:59:29;;;;;;;4.03;1.30;;;;;;;11.10;100.00;99464.31;1888525;76;26184;-71
2021/01/20 03:02:02;;;;;;;1.80;0.90;;;;;;;11.11;100.00;99460.97;1888403;76;26325;-72
2021/01/20 03:04:33;;;;;;;2.87;1.33;;;;;;;11.09;100.00;99462.66;1888418;76;26196;-71
2021/01/20 03:07:04;;;;;;;3.90;1.07;;;;;;;11.12;100.00;99452.31;1888426;76;26286;-72
2021/01/20 03:09:34;;;;;;;2.40;1.07;;;;;;;11.14;100.00;99455.58;1888389;76;26208;-72
2021/01/20 03:12:06;;;;;;;3.77;1.17;;;;;;;11.16;100.00;99442.76;1888419;76;26225;-71
2021/01/20 03:14:38;;;;;;;3.73;1.37;;;;;;;11.15;100.00;99446.10;1888491;76;26273;-72
2021/01/20 03:17:08;;;;;;;5.07;1.13;;;;;;;11.11;100.00;99440.12;1888401;76;26215;-72
2021/01/20 03:19:38;;;;;;;4.67;1.40;;;;;;;11.16;100.00;99442.19;1888506;76;26237;-71
2021/01/20 03:22:08;;;;;;;3.70;1.20;;;;;;;11.11;100.00;99440.95;1888433;76;26225;-71
2021/01/20 03:24:38;;;;;;;5.10;1.30;;;;;;;11.07;100.00;99447.47;1888417;76;26420;-71
2021/01/20 03:27:08;;;;;;;4.43;1.07;;;;;;;11.11;100.00;99444.30;1888404;76;26695;-71
2021/01/20 03:29:38;;;;;;;2.23;1.10;;;;;;;11.12;100.00;99447.33;1888374;76;26196;-71
2021/01/20 03:32:08;;;;;;;4.30;1.00;;;;;;;11.11;100.00;99438.73;1888400;76;26220;-71
2021/01/20 03:34:39;;;;;;;2.50;1.00;;;;;;;11.14;100.00;99438.08;1888401;76;26293;-71
2021/01/20 03:37:09;;;;;;;3.33;1.30;;;;;;;11.13;100.00;99430.88;1888418;76;26180;-71
2021/01/20 03:39:40;;;;;;;1.70;1.00;;;;;;;11.16;100.00;99423.30;1888437;76;26635;-71
2021/01/20 03:42:10;;;;;;;2.50;1.10;;;;;;;11.12;100.00;99428.70;1888406;76;26176;-71
2021/01/20 03:44:40;;;;;;;2.40;1.10;;;;;;;11.18;100.00;99429.34;1888473;76;26627;-71
2021/01/20 03:47:10;;;;;;;1.20;0.90;;;;;;;11.19;100.00;99422.08;1888293;75;26193;-71
2021/01/20 03:49:40;;;;;;;5.10;1.20;;;;;;;11.18;100.00;99430.16;1888523;76;26278;-71
2021/01/20 03:52:10;;;;;;;1.43;1.03;;;;;;;11.18;100.00;99422.39;1888524;76;26188;-71
2021/01/20 03:54:40;;;;;;;5.20;1.20;;;;;;;11.17;100.00;99412.41;1888544;76;26185;-71
2021/01/20 03:57:10;;;;;;;3.57;1.30;;;;;;;11.14;100.00;99417.23;1888505;76;26196;-71
2021/01/20 03:59:40;;;;;;;2.30;1.40;;;;;;;11.14;100.00;99416.67;1888536;76;26188;-71
2021/01/20 04:02:10;;;;;;;3.13;1.30;;;;;;;11.19;100.00;99406.80;1888518;76;26173;-71
2021/01/20 04:04:39;;;;;;;4.10;1.70;;;;;;;11.20;100.00;99406.23;1888595;76;26254;-72
2021/01/20 04:07:10;;;;;;;2.13;1.40;;;;;;;11.15;100.00;99398.86;1888544;76;26646;-71
2021/01/20 04:09:40;;;;;;;3.30;1.50;;;;;;;11.21;100.00;99392.59;1888480;76;26234;-72
2021/01/20 04:12:11;;;;;;;3.00;1.97;;;;;;;11.15;100.00;99395.27;1888552;76;26189;-71
2021/01/20 04:14:40;;;;;;;6.50;2.00;;;;;;;11.26;100.00;99397.96;1888498;76;26231;-71
2021/01/20 04:17:10;;;;;;;4.40;1.70;;;;;;;11.20;100.00;99390.95;1888521;76;26172;-72
2021/01/20 04:19:40;;;;;;;3.27;1.93;;;;;;;11.23;100.00;99385.55;1888498;76;26223;-71
2021/01/20 04:22:10;;;;;;;5.83;1.90;;;;;;;11.19;100.00;99385.13;1888575;76;26176;-71
2021/01/20 04:24:40;;;;;;;6.83;2.10;;;;;;;11.15;100.00;99380.80;1888579;76;26254;-71
2021/01/20 04:27:10;;;;;;;4.20;1.77;;;;;;;11.17;100.00;99375.72;1888492;76;26176;-71
2021/01/20 04:29:40;;;;;;;2.63;1.50;;;;;;;11.22;100.00;99378.91;1888570;76;26266;-71
2021/01/20 04:32:11;;;;;;;4.83;1.60;;;;;;;11.22;100.00;99378.34;1888484;76;26250;-71
2021/01/20 04:34:41;;;;;;;3.57;1.60;;;;;;;11.13;100.00;99373.34;1888485;76;26173;-71
2021/01/20 04:37:11;;;;;;;2.80;1.43;;;;;;;11.14;100.00;99367.22;1888580;76;26338;-71
2021/01/20 04:39:40;;;;;;;2.40;1.10;;;;;;;11.15;100.00;99368.30;1888492;76;26189;-71
2021/01/20 04:42:12;;;;;;;3.87;1.70;;;;;;;11.13;100.00;99362.23;1888523;76;26177;-71
2021/01/20 04:44:41;;;;;;;3.33;1.40;;;;;;;11.12;100.00;99367.56;1888579;76;26612;-70
2021/01/20 04:47:13;;;;;;;4.47;1.30;;;;;;;11.13;100.00;99357.24;1888510;76;26184;-71
2021/01/20 04:49:46;;;;;;;2.63;1.60;;;;;;;11.11;100.00;99361.75;1888470;75;26722;-73
2021/01/20 04:52:19;;;;;;;2.50;1.40;;;;;;;11.12;100.00;99352.85;1888497;76;26254;-73
2021/01/20 04:54:52;;;;;;;5.27;1.90;;;;;;;11.14;100.00;99361.66;1888565;76;26309;-72
2021/01/20 04:57:23;;;;;;;3.27;1.67;;;;;;;11.10;100.00;99350.95;1888491;76;26624;-71
2021/01/20 04:59:53;;;;;;;2.80;1.33;;;;;;;11.11;100.00;99351.20;1888459;76;26234;-71
2021/01/20 05:02:26;;;;;;;3.87;1.60;;;;;;;11.09;100.00;99348.74;1876686;75;928546;-71
2021/01/20 05:04:57;;;;;;;1.83;1.40;;;;;;;11.03;100.00;99348.67;1888591;76;26242;-71
2021/01/20 05:07:28;;;;;;;3.30;1.30;;;;;;;11.00;100.00;99344.31;1888464;76;26236;-71
2021/01/20 05:09:58;;;;;;;3.63;1.60;;;;;;;11.03;100.00;99328.40;1888478;76;26266;-71
2021/01/20 05:12:39;;;;;;;3.37;1.70;;;;;;;11.05;100.00;99349.14;1888575;76;26666;-71
2021/01/20 05:15:12;;;;;;;3.40;1.40;;;;;;;11.04;100.00;99338.37;1888674;76;26286;-71
2021/01/20 05:17:56;;;;;;;1.53;1.40;;;;;;;11.03;100.00;99336.73;1888522;76;26192;-71
2021/01/20 05:20:34;;;;;;;3.07;1.50;;;;;;;11.02;100.00;99328.14;1888574;76;26196;-71
2021/01/20 05:23:07;;;;;;;4.97;1.13;;;;;;;11.04;100.00;99337.78;1888459;76;26595;-71
2021/01/20 05:25:38;;;;;;;2.80;1.50;;;;;;;11.02;100.00;99333.70;1888594;76;26639;-71
2021/01/20 05:28:20;;;;;;;3.00;1.60;;;;;;;11.05;100.00;99329.70;1888579;76;26204;-71
2021/01/20 05:30:51;;;;;;;4.20;1.60;;;;;;;11.00;100.00;99329.03;1888525;76;26215;-70
2021/01/20 05:33:25;;;;;;;3.60;1.70;;;;;;;11.04;100.00;99330.05;1888478;76;26725;-71
2021/01/20 05:36:12;;;;;;;2.63;1.30;;;;;;;11.01;100.00;99327.33;1888588;76;26199;-70
2021/01/20 05:38:43;;;;;;;2.63;1.13;;;;;;;11.05;100.00;99325.53;1888604;76;26677;-72
2021/01/20 05:41:24;;;;;;;3.23;1.70;;;;;;;11.02;100.00;99319.81;1888463;76;26180;-71
2021/01/20 05:43:56;;;;;;;3.93;1.50;;;;;;;11.05;100.00;99317.77;1888431;76;26252;-72
2021/01/20 05:46:34;;;;;;;4.00;1.53;;;;;;;11.05;100.00;99310.25;1888464;76;26306;-71
2021/01/20 05:49:05;;;;;;;3.90;1.53;;;;;;;11.07;100.00;99312.72;1888429;76;26298;-72
2021/01/20 05:51:43;;;;;;;3.30;1.77;;;;;;;11.06;100.00;99313.85;1888440;76;26717;-71
2021/01/20 05:54:14;;;;;;;2.70;1.77;;;;;;;10.98;100.00;99317.44;1888485;76;26172;-71
2021/01/20 05:56:43;;;;;;;3.37;1.77;;;;;;;10.97;100.00;99309.67;1888564;76;26192;-71
2021/01/20 05:59:16;;;;;;;4.40;2.30;;;;;;;10.94;100.00;99304.21;1888499;76;26177;-71
2021/01/20 06:01:47;;;;;;;3.13;1.53;;;;;;;10.98;100.00;99302.16;1886102;76;26258;-71
2021/01/20 06:04:17;;;;;;;4.50;1.90;;;;;;;10.93;100.00;99291.45;1888595;76;26251;-72
2021/01/20 06:06:58;;;;;;;3.90;2.10;;;;;;;10.95;100.00;99291.93;1888433;76;26224;-71
2021/01/20 06:09:30;;;;;;;6.20;2.67;;;;;;;10.98;100.00;99300.77;1888459;76;26185;-71
2021/01/20 06:12:00;;;;;;;5.80;2.40;;;;;;;11.05;100.00;99281.64;1888344;76;26243;-71
2021/01/20 06:14:31;;;;;;;6.40;3.00;;;;;;;11.02;100.00;99284.52;1888729;76;26240;-71
2021/01/20 06:17:11;;;;;;;7.80;2.60;;;;;;;11.11;100.00;99284.52;1888533;76;26278;-71
2021/01/20 06:19:46;;;;;;;4.87;3.10;;;;;;;11.08;100.00;99286.57;1888651;76;26189;-71
2021/01/20 06:22:18;;;;;;;7.03;3.40;;;;;;;11.09;100.00;99279.84;1888463;76;26258;-71
2021/01/20 06:24:50;;;;;;;5.43;2.93;;;;;;;11.14;100.00;99282.47;1888554;76;26191;-72
2021/01/20 06:27:25;;;;;;;5.83;3.37;;;;;;;11.08;100.00;99280.41;1888537;76;26736;-71
2021/01/20 06:29:58;;;;;;;6.00;3.80;;;;;;;11.05;100.00;99289.41;1888460;76;26262;-71
2021/01/20 06:32:29;;;;;;;8.90;3.67;;;;;;;11.13;100.00;99285.81;1888530;76;26250;-72
2021/01/20 06:34:59;;;;;;;6.67;3.20;;;;;;;11.12;100.00;99272.27;1888565;76;26625;-71
2021/01/20 06:37:43;;;;;;;8.17;3.40;;;;;;;11.10;100.00;99271.77;1888542;76;26180;-71
2021/01/20 06:40:41;;;;;;;13.47;3.23;;;;;;;11.12;100.00;99261.97;1888469;76;26246;-71
2021/01/20 06:43:47;;;;;;;9.17;3.73;;;;;;;11.19;100.00;99267.02;1874235;76;26187;-72
2021/01/20 06:46:26;;;;;;;11.73;3.57;;;;;;;11.09;100.00;99267.34;1888483;76;26672;-71
2021/01/20 06:49:12;;;;;;;7.30;3.60;;;;;;;11.09;100.00;99266.77;1888537;76;26246;-72
2021/01/20 06:51:43;;;;;;;12.10;3.77;;;;;;;11.10;100.00;99272.58;1888425;76;26195;-72
2021/01/20 06:54:16;;;;;;;8.03;4.03;;;;;;;11.14;100.00;99263.02;1888421;76;26746;-70
2021/01/20 06:56:49;;;;;;;6.57;3.20;;;;;;;11.12;100.00;99264.75;1888424;76;26221;-71
2021/01/20 06:59:30;;;;;;;10.43;4.10;;;;;;;11.09;100.00;99270.13;1888512;76;26188;-71
2021/01/20 07:02:13;;;;;;;11.20;3.53;;;;;;;11.07;100.00;99259.92;1888433;76;26221;-70
2021/01/20 07:05:03;;;;;;;8.43;3.17;;;;;;;11.10;100.00;99260.08;1888511;76;26177;-70
2021/01/20 07:07:54;;;;;;;5.73;3.00;;;;;;;11.07;100.00;99254.37;1888383;76;26680;-69
2021/01/20 07:10:28;;;;;;;4.70;3.27;;;;;;;11.04;100.00;99248.09;1888424;76;26610;-69
2021/01/20 07:13:20;;;;;;;6.07;3.00;;;;;;;11.06;100.00;99254.11;1888399;76;26696;-69
2021/01/20 07:15:57;;;;;;;6.40;2.70;;;;;;;11.02;100.00;99248.97;1888406;76;26971;-70
2021/01/20 07:18:27;;;;;;;4.90;2.93;;;;;;;11.07;100.00;99251.02;1888501;76;26197;-70
2021/01/20 07:20:57;;;;;;;9.27;3.07;;;;;;;10.99;100.00;99251.02;1888409;76;26176;-68
2021/01/20 07:23:28;;;;;;;9.67;3.27;;;;;;;10.99;100.00;99249.06;1888435;76;26695;-68
2021/01/20 07:25:58;;;;;;;8.40;3.33;;;;;;;11.04;100.00;99247.48;1888530;76;26188;-69
2021/01/20 07:28:27;;;;;;;6.40;3.20;;;;;;;11.03;100.00;99250.61;1888702;76;26184;-69
2021/01/20 07:31:10;;;;;;;9.70;3.70;;;;;;;11.02;100.00;99254.52;1888610;76;26254;-73
2021/01/20 07:33:41;;;;;;;6.80;3.47;;;;;;;11.02;100.00;99248.40;1888556;76;26441;-72
2021/01/20 07:36:13;;;;;;;7.80;3.50;;;;;;;10.99;100.00;99244.89;1888663;76;26228;-71
2021/01/20 07:38:45;;;;;;;7.13;3.30;;;;;;;10.98;100.00;99236.88;1888521;76;26266;-71
2021/01/20 07:41:20;;;;;;;8.43;3.33;;;;;;;10.92;100.00;99242.59;1888508;76;26184;-69
2021/01/20 07:43:51;;;;;;;8.83;3.43;;;;;;;10.91;100.00;99227.06;1888494;76;26227;-70
2021/01/20 07:46:25;;;;;;;9.07;3.63;;;;;;;10.84;100.00;99235.08;1888529;76;26713;-69
2021/01/20 07:48:56;;;;;;;9.40;3.47;;;;;;;10.83;100.00;99240.38;1888556;76;26251;-70
2021/01/20 07:51:25;;;;;;;9.37;3.57;;;;;;;10.82;100.00;99227.66;1888550;76;26236;-67
2021/01/20 07:54:00;;;;;;;7.13;3.57;;;;;;;10.80;100.00;99236.88;1888527;76;26352;-68
2021/01/20 07:56:31;;;;;;;7.83;3.17;;;;;;;10.89;100.00;99233.53;1888566;76;26219;-68
2021/01/20 07:59:16;;;;;;;7.77;3.90;;;;;;;10.82;100.00;99232.39;1888540;76;26196;-68
2021/01/20 08:01:46;;;;;;;10.67;3.77;;;;;;;10.78;100.00;99234.98;1888506;76;26178;-67
2021/01/20 08:04:23;;;;;;;12.07;3.60;;;;;;;10.82;100.00;99217.94;1888536;76;26192;-69
2021/01/20 08:06:52;;;;;;;12.20;4.03;;;;;;;10.80;100.00;99224.37;1888605;76;26641;-69
2021/01/20 08:09:24;;;;;;;8.10;4.03;;;;;;;10.74;100.00;99227.66;1888594;76;26231;-70
2021/01/20 08:11:53;;;;;;;6.37;2.87;;;;;;;10.68;100.00;99217.27;1887053;76;26266;-71
2021/01/20 08:14:23;;;;;;;8.60;3.57;;;;;;;10.67;100.00;99219.80;1888510;76;26629;-72
2021/01/20 08:16:53;;;;;;;7.87;2.90;;;;;;;10.71;100.00;99204.68;1888559;76;26315;-73
2021/01/20 08:19:24;;;;;;;7.73;3.07;;;;;;;10.66;100.00;99207.61;1888543;76;26189;-73
2021/01/20 08:21:54;;;;;;;6.57;3.10;;;;;;;10.70;100.00;99200.27;1888602;76;26194;-71
2021/01/20 08:24:25;;;;;;;8.60;3.10;;;;;;;10.72;100.00;99206.33;1888508;76;26655;-70
2021/01/20 08:26:56;;;;;;;6.17;2.87;;;;;;;10.71;100.00;99192.19;1888498;76;26177;-71
2021/01/20 08:29:26;;;;;;;7.77;2.60;;;;;;;10.65;100.00;99205.44;1888624;76;26301;-71
2021/01/20 08:32:11;;;;;;;5.77;2.30;;;;;;;10.62;100.00;99200.52;1888540;76;26202;-74
2021/01/20 08:34:42;;;;;;;4.10;2.33;;;;;;;10.60;100.00;99187.55;1888568;76;26250;-68
2021/01/20 08:37:17;;;;;;;4.30;1.97;;;;;;;10.70;100.00;99187.77;1888568;76;26177;-70
2021/01/20 08:39:55;;;;;;;4.17;1.70;;;;;;;10.73;100.00;99186.56;1888408;76;26243;-67
2021/01/20 08:42:28;;;;;;;3.80;1.70;;;;;;;10.74;100.00;99180.45;1888550;76;26258;-74
2021/01/20 08:45:10;;;;;;;4.23;1.90;;;;;;;10.81;100.00;99172.43;1888515;76;26168;-76
2021/01/20 08:47:46;;;;;;;4.70;1.50;;;;;;;10.71;100.00;99179.69;1888470;76;26172;-69
2021/01/20 08:50:18;;;;;;;3.13;1.70;;;;;;;10.78;100.00;99173.09;1888384;76;26224;-67
2021/01/20 08:52:51;;;;;;;4.63;2.07;;;;;;;10.71;100.00;99175.53;1888538;76;26244;-68
2021/01/20 08:55:29;;;;;;;5.63;2.07;;;;;;;10.74;100.00;99168.74;1888587;76;26233;-67
2021/01/20 08:58:18;;;;;;;2.73;1.63;;;;;;;10.68;100.00;99168.68;1888676;76;26317;-67
2021/01/20 09:00:49;;;;;;;4.00;2.10;;;;;;;10.69;100.00;99167.55;1888496;76;26212;-67
2021/01/20 09:03:21;;;;;;;2.13;1.80;;;;;;;10.73;100.00;99165.74;1888619;76;26319;-67
2021/01/20 09:05:52;;;;;;;7.43;2.30;;;;;;;10.65;100.00;99163.79;1888585;76;26385;-70
2021/01/20 09:08:24;;;;;;;5.60;2.00;;;;;;;11.53;100.00;99160.50;1888573;76;26263;-67
2021/01/20 09:10:55;;;;;;;2.73;1.93;;;;;;;12.17;100.00;99152.28;1888477;76;26246;-67
2021/01/20 09:13:25;;;;;;;3.33;1.80;;;;;;;11.13;100.00;99163.55;1888462;76;26200;-67
2021/01/20 09:15:56;;;;;;;4.10;1.90;;;;;;;10.81;100.00;99162.14;1888669;76;26212;-68
2021/01/20 09:18:27;;;;;;;3.70;2.50;;;;;;;10.76;100.00;99158.14;1888579;76;26246;-68
2021/01/20 09:20:57;;;;;;;3.13;2.03;;;;;;;10.70;100.00;99157.22;1888477;76;26220;-68
2021/01/20 09:23:27;;;;;;;5.60;2.87;;;;;;;10.66;100.00;99144.57;1888573;76;26663;-71
2021/01/20 09:25:57;;;;;;;6.60;2.63;;;;;;;10.63;100.00;99137.48;1888446;76;26224;-68
2021/01/20 09:28:27;;;;;;;5.20;2.73;;;;;;;10.70;100.00;99141.38;1888573;76;26250;-68
2021/01/20 09:30:57;;;;;;;3.50;2.73;;;;;;;10.76;100.00;99145.64;1888620;76;26278;-67
2021/01/20 09:33:27;;;;;;;3.70;2.70;;;;;;;10.66;100.00;99142.37;1888431;76;26375;-74
2021/01/20 09:35:57;;;;;;;5.10;3.13;;;;;;;10.75;100.00;99140.41;1888642;76;26235;-70
2021/01/20 09:38:27;;;;;;;5.80;3.37;;;;;;;10.77;100.00;99137.56;1888512;76;26259;-67
2021/01/20 09:40:57;;;;;;;6.60;3.67;;;;;;;10.77;100.00;99125.63;1888669;76;26180;-67
2021/01/20 09:43:26;;;;;;;4.70;3.73;;;;;;;10.75;100.00;99130.12;1888568;76;26168;-68
2021/01/20 09:45:57;;;;;;;9.70;4.03;;;;;;;10.69;100.00;99127.28;1888648;76;26667;-69
2021/01/20 09:48:27;;;;;;;5.40;4.03;;;;;;;10.70;100.00;99121.95;1888550;76;26262;-67
2021/01/20 09:50:57;;;;;;;7.20;4.30;;;;;;;10.76;100.00;99107.33;1888406;75;26641;-68
2021/01/20 09:53:27;;;;;;;6.40;4.50;;;;;;;10.76;100.00;99117.87;1888537;75;26687;-73
2021/01/20 09:55:57;;;;;;;9.43;5.40;;;;;;;10.74;100.00;99109.04;1888533;76;26184;-66
2021/01/20 09:58:27;;;;;;;8.17;6.10;;;;;;;10.80;100.00;99112.47;1888555;76;26697;-66
2021/01/20 10:00:58;;;;;;;9.40;5.87;;;;;;;10.81;100.00;99102.43;1888550;76;26251;-66
2021/01/20 10:03:28;;;;;;;7.80;5.77;;;;;;;10.97;100.00;99102.72;1888464;76;26616;-66
2021/01/20 10:05:58;;;;;;;8.00;4.53;;;;;;;11.03;100.00;99100.02;1888568;76;26674;-67
2021/01/20 10:08:28;;;;;;;5.70;4.17;;;;;;;10.94;100.00;99100.61;1888557;76;26219;-67
2021/01/20 10:10:59;;;;;;;6.80;4.03;;;;;;;10.90;100.00;99089.34;1888498;76;26287;-67
2021/01/20 10:13:29;;;;;;;4.57;3.10;;;;;;;10.87;100.00;99092.77;1888554;76;26220;-67
2021/01/20 10:16:00;;;;;;;4.40;3.47;;;;;;;10.89;100.00;99093.83;1888556;76;26209;-67
2021/01/20 10:18:32;;;;;;;4.17;2.60;;;;;;;10.90;100.00;99087.14;1888427;76;26232;-67
2021/01/20 10:21:01;;;;;;;5.97;2.67;;;;;;;10.93;100.00;99087.29;1888414;76;26228;-65
2021/01/20 10:23:31;;;;;;;3.67;2.20;;;;;;;10.92;100.00;99069.55;1888551;76;26699;-66
2021/01/20 10:26:01;;;;;;;5.23;1.97;;;;;;;10.99;100.00;99084.34;1888564;76;24159;-65
2021/01/20 10:28:31;;;;;;;2.30;1.87;;;;;;;10.95;100.00;99071.69;1888581;76;26224;-66
2021/01/20 10:31:01;;;;;;;3.97;1.93;;;;;;;11.01;100.00;99066.75;1888535;76;26177;-66
2021/01/20 10:33:31;;;;;;;3.23;2.50;;;;;;;10.96;100.00;99068.56;1888462;76;26239;-66
2021/01/20 10:36:00;;;;;;;3.50;2.37;;;;;;;10.99;100.00;99066.28;1888418;76;26735;-67
2021/01/20 10:38:30;;;;;;;3.63;2.10;;;;;;;10.97;100.00;99065.22;1888407;76;26224;-66
2021/01/20 10:41:00;;;;;;;4.40;2.27;;;;;;;10.94;100.00;99055.59;1888450;76;26322;-66
2021/01/20 10:43:30;;;;;;;4.53;2.13;;;;;;;11.03;100.00;99063.08;1888434;76;26239;-66
2021/01/20 10:46:00;;;;;;;3.67;2.10;;;;;;;10.95;100.00;99055.81;1888522;76;26353;-66
2021/01/20 10:48:30;;;;;;;4.60;2.40;;;;;;;10.92;100.00;99047.33;1888413;76;26733;-66
2021/01/20 10:51:01;;;;;;;2.33;1.77;;;;;;;10.96;100.00;99055.25;1888434;76;26237;-66
2021/01/20 10:53:30;;;;;;;5.27;2.10;;;;;;;10.89;100.00;99045.23;1888318;75;26240;-65
2021/01/20 10:56:01;;;;;;;7.20;1.80;;;;;;;10.93;100.00;99033.13;1888447;76;26741;-67
2021/01/20 10:58:30;;;;;;;5.13;2.10;;;;;;;10.88;100.00;99044.41;1888371;76;26220;-66
2021/01/20 11:01:00;;;;;;;4.47;2.27;;;;;;;10.85;100.00;99038.70;1888512;76;26216;-67
2021/01/20 11:03:32;;;;;;;4.03;2.27;;;;;;;10.86;100.00;99035.61;1888499;76;26607;-74
2021/01/20 11:06:02;;;;;;;3.93;2.33;;;;;;;10.87;100.00;99026.11;1888362;76;26635;-67
2021/01/20 11:08:32;;;;;;;11.07;2.93;;;;;;;10.81;100.00;99019.69;1888476;76;26177;-67
2021/01/20 11:11:03;;;;;;;4.67;2.33;;;;;;;10.83;100.00;99029.31;1888651;76;26661;-69
2021/01/20 11:13:33;;;;;;;6.77;2.87;;;;;;;10.82;100.00;99019.94;1888478;76;26188;-70
2021/01/20 11:16:03;;;;;;;6.23;2.70;;;;;;;10.86;100.00;99020.33;1888421;76;26652;-67
2021/01/20 11:18:34;;;;;;;6.87;2.90;;;;;;;10.78;100.00;99018.37;1888511;76;26735;-70
2021/01/20 11:21:04;;;;;;;7.80;3.67;;;;;;;10.80;100.00;99011.11;1888415;76;26187;-68
2021/01/20 11:23:37;;;;;;;6.47;3.77;;;;;;;10.80;100.00;99012.50;1888503;76;26274;-67
2021/01/20 11:26:09;;;;;;;6.33;4.00;;;;;;;10.75;100.00;99001.56;1888423;76;26211;-66
2021/01/20 11:28:40;;;;;;;7.07;3.83;;;;;;;10.75;100.00;99002.38;1888393;76;26754;-67
2021/01/20 11:31:10;;;;;;;8.40;4.03;;;;;;;10.78;100.00;98997.55;1888492;76;26275;-68
2021/01/20 11:33:40;;;;;;;8.20;3.70;;;;;;;10.73;100.00;98994.16;1888461;76;26207;-67
2021/01/20 11:36:11;;;;;;;9.07;3.63;;;;;;;10.74;100.00;98997.97;1888727;76;26216;-67
2021/01/20 11:38:41;;;;;;;6.80;2.97;;;;;;;10.75;100.00;99000.99;1888482;76;26200;-68
2021/01/20 11:41:12;;;;;;;7.37;2.90;;;;;;;10.73;100.00;98994.16;1888471;76;26233;-67
2021/01/20 11:43:44;;;;;;;6.67;3.27;;;;;;;10.69;100.00;98994.58;1888555;76;26697;-67
2021/01/20 11:46:14;;;;;;;7.13;3.10;;;;;;;10.70;100.00;98976.17;1888621;76;26672;-68
2021/01/20 11:48:44;;;;;;;6.57;2.70;;;;;;;10.77;100.00;98976.50;1888552;76;26667;-68